Alyth, United Kingdom
Current Conditions -  °F | °C
As of 8:20 PM on Thursday 20 Nov 2014 (Local Time) from EGPN Reporting Station
Scattered Clouds Scattered Clouds  
Wind Chill:   Ceiling: Unl
Heat Index:   Visibility: 6mi
Dew Point:   Wind: 6mph
Humidity: 93%   Direction: 120°ESE
Pressure: 30.3"   Gusts: NA
Location:  56.62°N, 3.23°W
Report Text: EGPN 202020Z 12005KT 9999 FEW011 SCT020 09/08 Q1026
Loading
Personal Weather Stations






























Interactive Weather Map New forecast layout! Learn more

10-Day Weather Forecast

Advertisements
Track Severe Weather on mobile